sensor_id;sensor_type;location;lat;lon;timestamp;pressure;altitude;pressure_sealevel;temperature;humidity
13695;BME280;6919;52.344;14.518;2023-12-07T00:01:59;100867.16;;;0.46;100.00
13695;BME280;6919;52.344;14.518;2023-12-07T00:04:27;100862.53;;;0.50;100.00
13695;BME280;6919;52.344;14.518;2023-12-07T00:06:56;100861.59;;;0.51;100.00
13695;BME280;6919;52.344;14.518;2023-12-07T00:09:26;100872.00;;;0.54;100.00
13695;BME280;6919;52.344;14.518;2023-12-07T00:11:55;100872.78;;;0.56;100.00
13695;BME280;6919;52.344;14.518;2023-12-07T00:14:24;100883.31;;;0.56;100.00
13695;BME280;6919;52.344;14.518;2023-12-07T00:16:53;100872.84;;;0.54;100.00
13695;BME280;6919;52.344;14.518;2023-12-07T00:19:22;100879.97;;;0.52;100.00
13695;BME280;6919;52.344;14.518;2023-12-07T00:21:50;100876.59;;;0.50;100.00
13695;BME280;6919;52.344;14.518;2023-12-07T00:24:19;100881.41;;;0.42;100.00
13695;BME280;6919;52.344;14.518;2023-12-07T00:26:49;100893.00;;;0.40;100.00
13695;BME280;6919;52.344;14.518;2023-12-07T00:29:17;100891.97;;;0.42;100.00
13695;BME280;6919;52.344;14.518;2023-12-07T00:31:46;100887.72;;;0.40;100.00
13695;BME280;6919;52.344;14.518;2023-12-07T00:34:15;100888.66;;;0.39;100.00
13695;BME280;6919;52.344;14.518;2023-12-07T00:36:44;100891.13;;;0.42;100.00
13695;BME280;6919;52.344;14.518;2023-12-07T00:39:13;100899.88;;;0.42;100.00
13695;BME280;6919;52.344;14.518;2023-12-07T00:41:41;100904.25;;;0.43;100.00
13695;BME280;6919;52.344;14.518;2023-12-07T00:44:11;100913.25;;;0.39;100.00
13695;BME280;6919;52.344;14.518;2023-12-07T00:46:40;100911.63;;;0.37;100.00
13695;BME280;6919;52.344;14.518;2023-12-07T00:49:09;100909.69;;;0.40;100.00
13695;BME280;6919;52.344;14.518;2023-12-07T00:51:37;100906.81;;;0.45;100.00
13695;BME280;6919;52.344;14.518;2023-12-07T00:54:06;100903.81;;;0.51;100.00
13695;BME280;6919;52.344;14.518;2023-12-07T00:56:35;100911.06;;;0.47;100.00
13695;BME280;6919;52.344;14.518;2023-12-07T00:59:04;100906.13;;;0.57;100.00
13695;BME280;6919;52.344;14.518;2023-12-07T01:01:35;100911.22;;;0.60;100.00
13695;BME280;6919;52.344;14.518;2023-12-07T01:04:06;100907.81;;;0.58;100.00
13695;BME280;6919;52.344;14.518;2023-12-07T01:06:34;100911.16;;;0.61;100.00
13695;BME280;6919;52.344;14.518;2023-12-07T01:09:03;100916.59;;;0.58;100.00
13695;BME280;6919;52.344;14.518;2023-12-07T01:11:32;100923.47;;;0.61;100.00
13695;BME280;6919;52.344;14.518;2023-12-07T01:14:01;100922.38;;;0.65;100.00
13695;BME280;6919;52.344;14.518;2023-12-07T01:16:29;100917.06;;;0.49;100.00
13695;BME280;6919;52.344;14.518;2023-12-07T01:18:59;100920.25;;;0.56;100.00
13695;BME280;6919;52.344;14.518;2023-12-07T01:21:28;100927.81;;;0.62;100.00
13695;BME280;6919;52.344;14.518;2023-12-07T01:23:57;100930.03;;;0.54;100.00
13695;BME280;6919;52.344;14.518;2023-12-07T01:26:41;100934.19;;;0.58;100.00
13695;BME280;6919;52.344;14.518;2023-12-07T01:29:10;100944.06;;;0.54;100.00
13695;BME280;6919;52.344;14.518;2023-12-07T01:31:39;100936.50;;;0.48;100.00
13695;BME280;6919;52.344;14.518;2023-12-07T01:34:09;100936.91;;;0.56;100.00
13695;BME280;6919;52.344;14.518;2023-12-07T01:36:38;100940.41;;;0.57;100.00
13695;BME280;6919;52.344;14.518;2023-12-07T01:39:07;100940.34;;;0.58;100.00
13695;BME280;6919;52.344;14.518;2023-12-07T01:41:35;100937.84;;;0.55;100.00
13695;BME280;6919;52.344;14.518;2023-12-07T01:44:04;100938.03;;;0.52;100.00
13695;BME280;6919;52.344;14.518;2023-12-07T01:46:33;100941.38;;;0.56;100.00
13695;BME280;6919;52.344;14.518;2023-12-07T01:49:03;100947.06;;;0.64;100.00
13695;BME280;6919;52.344;14.518;2023-12-07T01:51:33;100947.47;;;0.56;100.00
13695;BME280;6919;52.344;14.518;2023-12-07T01:54:03;100938.63;;;0.57;100.00
13695;BME280;6919;52.344;14.518;2023-12-07T01:56:31;100941.09;;;0.60;100.00
13695;BME280;6919;52.344;14.518;2023-12-07T01:59:00;100953.28;;;0.63;100.00
13695;BME280;6919;52.344;14.518;2023-12-07T02:01:29;100943.56;;;0.63;100.00
13695;BME280;6919;52.344;14.518;2023-12-07T02:03:57;100946.28;;;0.62;100.00
13695;BME280;6919;52.344;14.518;2023-12-07T02:06:26;100946.91;;;0.67;100.00
13695;BME280;6919;52.344;14.518;2023-12-07T02:08:57;100948.69;;;0.66;100.00
13695;BME280;6919;52.344;14.518;2023-12-07T02:11:25;100951.41;;;0.65;100.00
13695;BME280;6919;52.344;14.518;2023-12-07T02:13:54;100957.69;;;0.62;100.00
13695;BME280;6919;52.344;14.518;2023-12-07T02:16:34;100971.06;;;0.59;100.00
13695;BME280;6919;52.344;14.518;2023-12-07T02:19:20;100958.09;;;0.55;100.00
13695;BME280;6919;52.344;14.518;2023-12-07T02:21:58;100959.13;;;0.52;100.00
13695;BME280;6919;52.344;14.518;2023-12-07T02:24:33;100960.75;;;0.55;100.00
13695;BME280;6919;52.344;14.518;2023-12-07T02:27:04;100969.88;;;0.65;100.00
13695;BME280;6919;52.344;14.518;2023-12-07T02:29:33;100974.56;;;0.60;100.00
13695;BME280;6919;52.344;14.518;2023-12-07T02:32:02;100973.84;;;0.56;100.00
13695;BME280;6919;52.344;14.518;2023-12-07T02:34:30;100971.06;;;0.59;100.00
13695;BME280;6919;52.344;14.518;2023-12-07T02:37:00;100970.97;;;0.61;100.00
13695;BME280;6919;52.344;14.518;2023-12-07T02:39:30;100969.88;;;0.65;100.00
13695;BME280;6919;52.344;14.518;2023-12-07T02:41:59;100968.69;;;0.70;100.00
13695;BME280;6919;52.344;14.518;2023-12-07T02:44:30;100976.50;;;0.72;100.00
13695;BME280;6919;52.344;14.518;2023-12-07T02:47:00;100972.59;;;0.79;100.00
13695;BME280;6919;52.344;14.518;2023-12-07T02:49:28;100972.59;;;0.79;100.00
13695;BME280;6919;52.344;14.518;2023-12-07T02:51:58;100977.81;;;0.80;100.00
13695;BME280;6919;52.344;14.518;2023-12-07T02:54:27;100977.72;;;0.82;100.00
13695;BME280;6919;52.344;14.518;2023-12-07T02:56:55;100980.53;;;0.79;100.00
13695;BME280;6919;52.344;14.518;2023-12-07T02:59:24;100988.53;;;0.77;100.00
13695;BME280;6919;52.344;14.518;2023-12-07T03:01:54;100983.78;;;0.84;100.00
13695;BME280;6919;52.344;14.518;2023-12-07T03:04:22;100984.09;;;0.78;100.00
13695;BME280;6919;52.344;14.518;2023-12-07T03:06:51;100989.56;;;0.75;100.00
13695;BME280;6919;52.344;14.518;2023-12-07T03:09:20;100980.53;;;0.79;100.00
13695;BME280;6919;52.344;14.518;2023-12-07T03:11:49;100990.25;;;0.78;100.00
13695;BME280;6919;52.344;14.518;2023-12-07T03:14:18;100989.38;;;0.78;100.00
13695;BME280;6919;52.344;14.518;2023-12-07T03:16:47;100994.81;;;0.75;100.00
13695;BME280;6919;52.344;14.518;2023-12-07T03:19:17;100997.47;;;0.75;100.00
13695;BME280;6919;52.344;14.518;2023-12-07T03:21:46;100993.28;;;0.71;100.00
13695;BME280;6919;52.344;14.518;2023-12-07T03:24:14;100996.16;;;0.66;100.00
13695;BME280;6919;52.344;14.518;2023-12-07T03:26:43;100998.16;;;0.78;100.00
13695;BME280;6919;52.344;14.518;2023-12-07T03:29:12;100997.91;;;0.83;100.00
13695;BME280;6919;52.344;14.518;2023-12-07T03:31:40;101004.19;;;0.80;100.00
13695;BME280;6919;52.344;14.518;2023-12-07T03:34:09;101005.38;;;0.75;100.00
13695;BME280;6919;52.344;14.518;2023-12-07T03:36:42;101009.22;;;0.69;100.00
13695;BME280;6919;52.344;14.518;2023-12-07T03:39:10;100997.69;;;0.70;100.00
13695;BME280;6919;52.344;14.518;2023-12-07T03:41:40;101003.53;;;0.77;100.00
13695;BME280;6919;52.344;14.518;2023-12-07T03:44:09;101013.22;;;0.76;100.00
13695;BME280;6919;52.344;14.518;2023-12-07T03:46:37;101019.44;;;0.75;100.00
13695;BME280;6919;52.344;14.518;2023-12-07T03:49:06;101015.25;;;0.71;100.00
13695;BME280;6919;52.344;14.518;2023-12-07T03:51:35;101014.16;;;0.75;100.00
13695;BME280;6919;52.344;14.518;2023-12-07T03:54:05;101015.47;;;0.84;100.00
13695;BME280;6919;52.344;14.518;2023-12-07T03:56:34;101019.47;;;0.91;100.00
13695;BME280;6919;52.344;14.518;2023-12-07T03:59:03;101010.69;;;0.90;100.00
13695;BME280;6919;52.344;14.518;2023-12-07T04:01:31;101017.00;;;0.88;100.00
13695;BME280;6919;52.344;14.518;2023-12-07T04:04:00;101021.47;;;0.86;100.00
13695;BME280;6919;52.344;14.518;2023-12-07T04:06:29;101022.44;;;0.85;100.00
13695;BME280;6919;52.344;14.518;2023-12-07T04:08:57;101031.44;;;0.81;100.00
13695;BME280;6919;52.344;14.518;2023-12-07T04:11:27;101038.66;;;0.77;100.00
13695;BME280;6919;52.344;14.518;2023-12-07T04:13:56;101039.84;;;0.72;100.00
13695;BME280;6919;52.344;14.518;2023-12-07T04:16:24;101053.81;;;0.74;100.00
13695;BME280;6919;52.344;14.518;2023-12-07T04:18:54;101044.81;;;0.78;100.00
13695;BME280;6919;52.344;14.518;2023-12-07T04:21:22;101048.03;;;0.83;100.00
13695;BME280;6919;52.344;14.518;2023-12-07T04:23:51;101050.34;;;0.89;100.00
13695;BME280;6919;52.344;14.518;2023-12-07T04:26:20;101047.13;;;0.84;100.00
13695;BME280;6919;52.344;14.518;2023-12-07T04:28:50;101051.06;;;0.92;100.00
13695;BME280;6919;52.344;14.518;2023-12-07T04:31:18;101046.69;;;0.91;100.00
13695;BME280;6919;52.344;14.518;2023-12-07T04:33:49;101048.81;;;0.85;100.00
13695;BME280;6919;52.344;14.518;2023-12-07T04:36:18;101056.34;;;0.92;100.00
13695;BME280;6919;52.344;14.518;2023-12-07T04:38:47;101053.94;;;0.88;100.00
13695;BME280;6919;52.344;14.518;2023-12-07T04:41:16;101057.59;;;0.85;100.00
13695;BME280;6919;52.344;14.518;2023-12-07T04:43:44;101054.97;;;0.85;100.00
13695;BME280;6919;52.344;14.518;2023-12-07T04:46:15;101062.09;;;0.83;100.00
13695;BME280;6919;52.344;14.518;2023-12-07T04:48:46;101055.63;;;0.89;100.00
13695;BME280;6919;52.344;14.518;2023-12-07T04:51:14;101058.19;;;0.90;100.00
13695;BME280;6919;52.344;14.518;2023-12-07T04:53:43;101063.47;;;0.90;100.00
13695;BME280;6919;52.344;14.518;2023-12-07T04:56:12;101058.88;;;0.94;100.00
13695;BME280;6919;52.344;14.518;2023-12-07T04:58:41;101056.34;;;0.92;100.00
13695;BME280;6919;52.344;14.518;2023-12-07T05:01:10;101058.13;;;0.92;100.00
13695;BME280;6919;52.344;14.518;2023-12-07T05:03:41;101066.63;;;0.97;100.00
13695;BME280;6919;52.344;14.518;2023-12-07T05:06:10;101067.41;;;0.99;100.00
13695;BME280;6919;52.344;14.518;2023-12-07T05:08:39;101065.00;;;0.94;100.00
13695;BME280;6919;52.344;14.518;2023-12-07T05:11:08;101067.66;;;0.94;100.00
13695;BME280;6919;52.344;14.518;2023-12-07T05:13:36;101058.03;;;0.93;100.00
13695;BME280;6919;52.344;14.518;2023-12-07T05:16:05;101073.63;;;0.98;100.00
13695;BME280;6919;52.344;14.518;2023-12-07T05:18:34;101069.44;;;0.94;100.00
13695;BME280;6919;52.344;14.518;2023-12-07T05:21:05;101071.41;;;0.90;100.00
13695;BME280;6919;52.344;14.518;2023-12-07T05:23:34;101071.47;;;0.89;100.00
13695;BME280;6919;52.344;14.518;2023-12-07T05:26:06;101072.41;;;0.88;100.00
13695;BME280;6919;52.344;14.518;2023-12-07T05:28:36;101078.06;;;0.97;100.00
13695;BME280;6919;52.344;14.518;2023-12-07T05:31:05;101074.91;;;0.91;100.00
13695;BME280;6919;52.344;14.518;2023-12-07T05:33:34;101078.38;;;0.91;100.00
13695;BME280;6919;52.344;14.518;2023-12-07T05:36:04;101085.28;;;0.94;100.00
13695;BME280;6919;52.344;14.518;2023-12-07T05:38:33;101082.03;;;0.89;100.00
13695;BME280;6919;52.344;14.518;2023-12-07T05:41:02;101090.34;;;0.81;100.00
13695;BME280;6919;52.344;14.518;2023-12-07T05:43:32;101089.97;;;0.89;100.00
13695;BME280;6919;52.344;14.518;2023-12-07T05:46:01;101098.66;;;0.91;100.00
13695;BME280;6919;52.344;14.518;2023-12-07T05:48:30;101091.56;;;0.91;100.00
13695;BME280;6919;52.344;14.518;2023-12-07T05:50:58;101099.09;;;0.99;100.00
13695;BME280;6919;52.344;14.518;2023-12-07T05:53:28;101095.44;;;1.01;100.00
13695;BME280;6919;52.344;14.518;2023-12-07T05:56:00;101103.34;;;1.01;100.00
13695;BME280;6919;52.344;14.518;2023-12-07T05:58:31;101111.31;;;0.84;100.00
13695;BME280;6919;52.344;14.518;2023-12-07T06:01:01;101112.78;;;0.90;100.00
13695;BME280;6919;52.344;14.518;2023-12-07T06:03:30;101111.06;;;0.89;100.00
13695;BME280;6919;52.344;14.518;2023-12-07T06:05:59;101107.66;;;0.87;100.00
13695;BME280;6919;52.344;14.518;2023-12-07T06:08:29;101108.50;;;0.87;100.00
13695;BME280;6919;52.344;14.518;2023-12-07T06:10:59;101116.34;;;0.89;100.00
13695;BME280;6919;52.344;14.518;2023-12-07T06:13:27;101104.94;;;0.88;100.00
13695;BME280;6919;52.344;14.518;2023-12-07T06:15:56;101109.81;;;0.96;100.00
13695;BME280;6919;52.344;14.518;2023-12-07T06:18:24;101106.38;;;0.94;100.00
13695;BME280;6919;52.344;14.518;2023-12-07T06:20:53;101106.72;;;0.88;100.00
13695;BME280;6919;52.344;14.518;2023-12-07T06:23:22;101119.16;;;0.86;100.00
13695;BME280;6919;52.344;14.518;2023-12-07T06:25:52;101104.84;;;0.90;100.00
13695;BME280;6919;52.344;14.518;2023-12-07T06:28:20;101105.78;;;0.89;100.00
13695;BME280;6919;52.344;14.518;2023-12-07T06:30:49;101114.41;;;0.92;100.00
13695;BME280;6919;52.344;14.518;2023-12-07T06:33:17;101106.38;;;0.94;100.00
13695;BME280;6919;52.344;14.518;2023-12-07T06:35:47;101109.16;;;1.08;100.00
13695;BME280;6919;52.344;14.518;2023-12-07T06:38:16;101111.44;;;0.98;100.00
13695;BME280;6919;52.344;14.518;2023-12-07T06:40:47;101106.00;;;1.01;100.00
13695;BME280;6919;52.344;14.518;2023-12-07T06:43:17;101111.34;;;1.00;100.00
13695;BME280;6919;52.344;14.518;2023-12-07T06:45:45;101113.41;;;0.95;100.00
13695;BME280;6919;52.344;14.518;2023-12-07T06:48:14;101115.16;;;0.94;100.00
13695;BME280;6919;52.344;14.518;2023-12-07T06:50:43;101115.25;;;0.93;100.00
13695;BME280;6919;52.344;14.518;2023-12-07T06:53:11;101114.41;;;0.92;100.00
13695;BME280;6919;52.344;14.518;2023-12-07T06:55:41;101118.69;;;0.78;100.00
13695;BME280;6919;52.344;14.518;2023-12-07T06:58:12;101129.63;;;0.87;100.00
13695;BME280;6919;52.344;14.518;2023-12-07T07:00:42;101128.44;;;0.93;100.00
13695;BME280;6919;52.344;14.518;2023-12-07T07:03:11;101126.75;;;0.92;100.00
13695;BME280;6919;52.344;14.518;2023-12-07T07:05:39;101133.34;;;1.00;100.00
13695;BME280;6919;52.344;14.518;2023-12-07T07:08:08;101136.22;;;0.96;100.00
13695;BME280;6919;52.344;14.518;2023-12-07T07:10:36;101138.69;;;0.99;100.00
13695;BME280;6919;52.344;14.518;2023-12-07T07:13:05;101143.19;;;0.97;100.00
13695;BME280;6919;52.344;14.518;2023-12-07T07:15:34;101142.28;;;0.98;100.00
13695;BME280;6919;52.344;14.518;2023-12-07T07:18:04;101146.09;;;0.92;100.00
13695;BME280;6919;52.344;14.518;2023-12-07T07:20:33;101143.91;;;1.00;100.00
13695;BME280;6919;52.344;14.518;2023-12-07T07:23:02;101144.91;;;0.98;100.00
13695;BME280;6919;52.344;14.518;2023-12-07T07:25:30;101147.28;;;1.02;100.00
13695;BME280;6919;52.344;14.518;2023-12-07T07:27:59;101146.97;;;1.08;100.00
13695;BME280;6919;52.344;14.518;2023-12-07T07:30:28;101146.75;;;1.13;100.00
13695;BME280;6919;52.344;14.518;2023-12-07T07:32:56;101154.75;;;1.11;100.00
13695;BME280;6919;52.344;14.518;2023-12-07T07:35:26;101147.91;;;1.07;100.00
13695;BME280;6919;52.344;14.518;2023-12-07T07:37:56;101151.31;;;1.09;100.00
13695;BME280;6919;52.344;14.518;2023-12-07T07:40:24;101153.44;;;1.03;100.00
13695;BME280;6919;52.344;14.518;2023-12-07T07:42:53;101148.53;;;1.12;100.00
13695;BME280;6919;52.344;14.518;2023-12-07T07:45:22;101154.81;;;1.10;100.00
13695;BME280;6919;52.344;14.518;2023-12-07T07:47:52;101145.88;;;1.12;100.00
13695;BME280;6919;52.344;14.518;2023-12-07T07:50:21;101145.63;;;1.17;100.00
13695;BME280;6919;52.344;14.518;2023-12-07T07:52:51;101150.69;;;1.21;100.00
13695;BME280;6919;52.344;14.518;2023-12-07T07:55:20;101153.03;;;1.10;100.00
13695;BME280;6919;52.344;14.518;2023-12-07T07:57:48;101147.41;;;1.16;100.00
13695;BME280;6919;52.344;14.518;2023-12-07T08:02:47;101150.13;;;1.15;100.00
13695;BME280;6919;52.344;14.518;2023-12-07T08:05:16;101152.63;;;1.18;100.00
13695;BME280;6919;52.344;14.518;2023-12-07T08:07:44;101151.78;;;1.17;100.00
13695;BME280;6919;52.344;14.518;2023-12-07T08:10:14;101163.34;;;1.15;100.00
13695;BME280;6919;52.344;14.518;2023-12-07T08:12:43;101158.06;;;1.15;100.00
13695;BME280;6919;52.344;14.518;2023-12-07T08:15:12;101154.25;;;1.20;100.00
13695;BME280;6919;52.344;14.518;2023-12-07T08:17:41;101156.03;;;1.20;100.00
13695;BME280;6919;52.344;14.518;2023-12-07T08:20:11;101161.84;;;1.26;100.00
13695;BME280;6919;52.344;14.518;2023-12-07T08:22:40;101154.53;;;1.31;100.00
13695;BME280;6919;52.344;14.518;2023-12-07T08:25:11;101156.72;;;1.23;100.00
13695;BME280;6919;52.344;14.518;2023-12-07T08:27:41;101153.84;;;1.28;100.00
13695;BME280;6919;52.344;14.518;2023-12-07T08:30:11;101159.03;;;1.29;100.00
13695;BME280;6919;52.344;14.518;2023-12-07T08:32:40;101163.06;;;1.36;100.00
13695;BME280;6919;52.344;14.518;2023-12-07T08:35:09;101162.38;;;1.33;100.00
13695;BME280;6919;52.344;14.518;2023-12-07T08:37:38;101171.78;;;1.38;100.00
13695;BME280;6919;52.344;14.518;2023-12-07T08:40:08;101172.59;;;1.39;100.00
13695;BME280;6919;52.344;14.518;2023-12-07T08:42:40;101171.41;;;1.44;100.00
13695;BME280;6919;52.344;14.518;2023-12-07T08:45:09;101175.88;;;1.44;100.00
13695;BME280;6919;52.344;14.518;2023-12-07T08:47:38;101185.09;;;1.52;100.00
13695;BME280;6919;52.344;14.518;2023-12-07T08:50:07;101184.38;;;1.49;100.00
13695;BME280;6919;52.344;14.518;2023-12-07T08:52:36;101182.59;;;1.49;100.00
13695;BME280;6919;52.344;14.518;2023-12-07T08:55:14;101180.63;;;1.53;100.00
13695;BME280;6919;52.344;14.518;2023-12-07T08:57:45;101183.97;;;1.56;100.00
13695;BME280;6919;52.344;14.518;2023-12-07T09:00:15;101191.03;;;1.56;100.00
13695;BME280;6919;52.344;14.518;2023-12-07T09:02:44;101185.34;;;1.63;100.00
13695;BME280;6919;52.344;14.518;2023-12-07T09:05:15;101188.16;;;1.60;100.00
13695;BME280;6919;52.344;14.518;2023-12-07T09:07:43;101186.19;;;1.64;100.00
13695;BME280;6919;52.344;14.518;2023-12-07T09:10:12;101189.09;;;1.75;100.00
13695;BME280;6919;52.344;14.518;2023-12-07T09:12:41;101191.00;;;1.73;100.00
13695;BME280;6919;52.344;14.518;2023-12-07T09:15:11;101187.31;;;1.75;100.00
13695;BME280;6919;52.344;14.518;2023-12-07T09:17:40;101189.16;;;1.73;100.00
13695;BME280;6919;52.344;14.518;2023-12-07T09:20:11;101193.63;;;1.73;100.00
13695;BME280;6919;52.344;14.518;2023-12-07T09:22:42;101196.19;;;1.74;100.00
13695;BME280;6919;52.344;14.518;2023-12-07T09:25:11;101202.31;;;1.75;100.00
13695;BME280;6919;52.344;14.518;2023-12-07T09:27:40;101193.31;;;1.79;100.00
13695;BME280;6919;52.344;14.518;2023-12-07T09:30:11;101198.22;;;1.85;100.00
13695;BME280;6919;52.344;14.518;2023-12-07T09:32:41;101205.75;;;1.92;100.00
13695;BME280;6919;52.344;14.518;2023-12-07T09:35:12;101195.25;;;1.91;100.00
13695;BME280;6919;52.344;14.518;2023-12-07T09:37:43;101201.41;;;1.91;100.00
13695;BME280;6919;52.344;14.518;2023-12-07T09:40:15;101200.22;;;1.97;100.00
13695;BME280;6919;52.344;14.518;2023-12-07T09:42:46;101194.38;;;1.90;100.00
13695;BME280;6919;52.344;14.518;2023-12-07T09:45:17;101193.56;;;1.90;100.00
13695;BME280;6919;52.344;14.518;2023-12-07T09:47:48;101196.03;;;1.93;100.00
13695;BME280;6919;52.344;14.518;2023-12-07T09:50:19;101199.50;;;1.93;100.00
13695;BME280;6919;52.344;14.518;2023-12-07T09:52:49;101202.00;;;1.96;100.00
13695;BME280;6919;52.344;14.518;2023-12-07T09:55:31;101194.84;;;1.98;100.00
13695;BME280;6919;52.344;14.518;2023-12-07T09:58:02;101195.66;;;1.99;100.00
13695;BME280;6919;52.344;14.518;2023-12-07T10:00:34;101196.53;;;1.99;100.00
13695;BME280;6919;52.344;14.518;2023-12-07T10:03:03;101192.69;;;2.05;100.00
13695;BME280;6919;52.344;14.518;2023-12-07T10:05:54;101197.28;;;2.01;100.00
13695;BME280;6919;52.344;14.518;2023-12-07T10:08:30;101198.94;;;2.04;100.00
13695;BME280;6919;52.344;14.518;2023-12-07T10:11:06;101197.19;;;2.03;100.00
13695;BME280;6919;52.344;14.518;2023-12-07T10:13:36;101199.44;;;2.10;100.00
13695;BME280;6919;52.344;14.518;2023-12-07T10:16:11;101194.38;;;2.06;100.00
13695;BME280;6919;52.344;14.518;2023-12-07T10:18:42;101194.81;;;2.14;100.00
13695;BME280;6919;52.344;14.518;2023-12-07T10:21:12;101187.97;;;2.10;100.00
13695;BME280;6919;52.344;14.518;2023-12-07T10:23:42;101191.75;;;2.06;100.00
13695;BME280;6919;52.344;14.518;2023-12-07T10:26:16;101190.78;;;2.07;100.00
13695;BME280;6919;52.344;14.518;2023-12-07T10:28:49;101193.81;;;2.16;100.00
13695;BME280;6919;52.344;14.518;2023-12-07T10:31:23;101192.06;;;2.15;100.00
13695;BME280;6919;52.344;14.518;2023-12-07T10:33:52;101192.59;;;2.22;100.00
13695;BME280;6919;52.344;14.518;2023-12-07T10:36:22;101192.78;;;2.19;100.00
13695;BME280;6919;52.344;14.518;2023-12-07T10:38:51;101186.63;;;2.18;100.00
13695;BME280;6919;52.344;14.518;2023-12-07T10:41:21;101187.22;;;2.23;100.00
13695;BME280;6919;52.344;14.518;2023-12-07T10:43:53;101193.50;;;2.21;100.00
13695;BME280;6919;52.344;14.518;2023-12-07T10:46:23;101196.94;;;2.23;100.00
13695;BME280;6919;52.344;14.518;2023-12-07T10:48:59;101189.69;;;2.26;100.00
13695;BME280;6919;52.344;14.518;2023-12-07T10:51:33;101186.59;;;2.34;100.00
13695;BME280;6919;52.344;14.518;2023-12-07T10:54:04;101184.66;;;2.22;100.00
13695;BME280;6919;52.344;14.518;2023-12-07T10:56:39;101196.94;;;2.23;100.00
13695;BME280;6919;52.344;14.518;2023-12-07T10:59:10;101191.31;;;2.13;100.00
13695;BME280;6919;52.344;14.518;2023-12-07T11:01:57;101196.16;;;2.21;100.00
13695;BME280;6919;52.344;14.518;2023-12-07T11:04:27;101194.13;;;2.26;100.00
13695;BME280;6919;52.344;14.518;2023-12-07T11:07:03;101195.06;;;2.25;100.00
13695;BME280;6919;52.344;14.518;2023-12-07T11:09:39;101195.25;;;2.22;100.00
13695;BME280;6919;52.344;14.518;2023-12-07T11:12:17;101198.47;;;2.27;100.00
13695;BME280;6919;52.344;14.518;2023-12-07T11:14:47;101193.59;;;2.35;100.00
13695;BME280;6919;52.344;14.518;2023-12-07T11:17:18;101190.09;;;2.34;100.00
13695;BME280;6919;52.344;14.518;2023-12-07T11:19:50;101193.97;;;2.29;100.00
13695;BME280;6919;52.344;14.518;2023-12-07T11:22:20;101190.53;;;2.27;100.00
13695;BME280;6919;52.344;14.518;2023-12-07T11:24:56;101190.53;;;2.27;100.00
13695;BME280;6919;52.344;14.518;2023-12-07T11:27:30;101196.91;;;2.38;100.00
13695;BME280;6919;52.344;14.518;2023-12-07T11:30:00;101188.13;;;2.38;100.00
13695;BME280;6919;52.344;14.518;2023-12-07T11:32:30;101189.41;;;2.31;100.00
13695;BME280;6919;52.344;14.518;2023-12-07T11:35:03;101180.19;;;2.38;100.00
13695;BME280;6919;52.344;14.518;2023-12-07T11:38:04;101182.81;;;2.38;100.00
13695;BME280;6919;52.344;14.518;2023-12-07T11:40:37;101185.38;;;2.39;100.00
13695;BME280;6919;52.344;14.518;2023-12-07T11:43:08;101176.25;;;2.45;100.00
13695;BME280;6919;52.344;14.518;2023-12-07T11:45:48;101178.88;;;2.45;100.00
13695;BME280;6919;52.344;14.518;2023-12-07T11:48:18;101177.84;;;2.47;100.00
13695;BME280;6919;52.344;14.518;2023-12-07T11:50:55;101174.81;;;2.39;100.00
13695;BME280;6919;52.344;14.518;2023-12-07T11:53:26;101181.13;;;2.37;100.00
13695;BME280;6919;52.344;14.518;2023-12-07T11:55:57;101179.00;;;2.28;100.00
13695;BME280;6919;52.344;14.518;2023-12-07T11:58:26;101186.59;;;2.34;100.00
13695;BME280;6919;52.344;14.518;2023-12-07T12:00:55;101183.44;;;2.43;100.00
13695;BME280;6919;52.344;14.518;2023-12-07T12:03:27;101176.09;;;2.32;100.00
13695;BME280;6919;52.344;14.518;2023-12-07T12:05:56;101169.03;;;2.33;100.00
13695;BME280;6919;52.344;14.518;2023-12-07T12:08:25;101177.72;;;2.35;100.00
13695;BME280;6919;52.344;14.518;2023-12-07T12:10:55;101175.16;;;2.33;100.00
13695;BME280;6919;52.344;14.518;2023-12-07T12:13:27;101176.47;;;2.26;100.00
13695;BME280;6919;52.344;14.518;2023-12-07T12:15:57;101181.66;;;2.28;100.00
13695;BME280;6919;52.344;14.518;2023-12-07T12:18:32;101176.97;;;2.33;100.00
13695;BME280;6919;52.344;14.518;2023-12-07T12:21:01;101172.63;;;2.32;100.00
13695;BME280;6919;52.344;14.518;2023-12-07T12:23:30;101172.69;;;2.30;100.00
13695;BME280;6919;52.344;14.518;2023-12-07T12:25:59;101176.00;;;2.34;100.00
13695;BME280;6919;52.344;14.518;2023-12-07T12:28:29;101179.44;;;2.36;100.00
13695;BME280;6919;52.344;14.518;2023-12-07T12:31:00;101174.81;;;2.39;100.00
13695;BME280;6919;52.344;14.518;2023-12-07T12:33:30;101177.03;;;2.31;100.00
13695;BME280;6919;52.344;14.518;2023-12-07T12:36:03;101188.38;;;2.33;100.00
13695;BME280;6919;52.344;14.518;2023-12-07T12:38:32;101182.09;;;2.36;100.00
13695;BME280;6919;52.344;14.518;2023-12-07T12:41:10;101184.91;;;2.33;100.00
13695;BME280;6919;52.344;14.518;2023-12-07T12:43:39;101195.47;;;2.33;100.00
13695;BME280;6919;52.344;14.518;2023-12-07T12:46:08;101186.25;;;2.40;100.00
13695;BME280;6919;52.344;14.518;2023-12-07T12:48:55;101182.56;;;2.42;100.00
13695;BME280;6919;52.344;14.518;2023-12-07T12:51:25;101186.66;;;2.48;100.00
13695;BME280;6919;52.344;14.518;2023-12-07T12:53:55;101192.13;;;2.45;100.00
13695;BME280;6919;52.344;14.518;2023-12-07T12:56:27;101191.59;;;2.54;100.00
13695;BME280;6919;52.344;14.518;2023-12-07T12:58:56;101191.78;;;2.51;100.00
13695;BME280;6919;52.344;14.518;2023-12-07T13:01:32;101185.34;;;2.55;100.00
13695;BME280;6919;52.344;14.518;2023-12-07T13:04:03;101184.31;;;2.57;100.00
13695;BME280;6919;52.344;14.518;2023-12-07T13:06:32;101186.13;;;2.57;100.00
13695;BME280;6919;52.344;14.518;2023-12-07T13:09:00;101190.22;;;2.62;100.00